createdAt,value
2019-04-28T00:01:31.054Z,99.90
2019-04-28T00:04:01.324Z,99.90
2019-04-28T00:06:31.081Z,99.90
2019-04-28T00:09:01.608Z,99.90
2019-04-28T00:11:31.652Z,99.90
2019-04-28T00:14:01.847Z,99.90
2019-04-28T00:16:31.132Z,99.90
2019-04-28T00:19:01.159Z,99.90
2019-04-28T00:21:31.942Z,99.90
2019-04-28T00:24:04.976Z,99.90
2019-04-28T00:26:37.462Z,99.90
2019-04-28T00:29:05.936Z,99.90
2019-04-28T00:31:34.350Z,99.90
2019-04-28T00:34:02.816Z,99.90
2019-04-28T00:36:31.519Z,99.90
2019-04-28T00:39:01.549Z,99.90
2019-04-28T00:41:30.870Z,99.90
2019-04-28T00:43:59.451Z,99.90
2019-04-28T00:46:37.554Z,99.90
2019-04-28T00:49:06.041Z,99.90
2019-04-28T00:51:34.555Z,99.90
2019-04-28T00:54:02.953Z,99.90
2019-04-28T00:56:31.739Z,99.90
2019-04-28T00:59:01.631Z,99.90
2019-04-28T01:01:43.464Z,99.90
2019-04-28T01:04:12.020Z,99.90
2019-04-28T01:06:40.504Z,99.90
2019-04-28T01:09:09.249Z,99.90
2019-04-28T01:11:38.020Z,99.90
2019-04-28T01:14:06.484Z,99.90
2019-04-28T01:16:36.532Z,99.90
2019-04-28T01:19:12.352Z,99.90
2019-04-28T01:21:57.434Z,99.90
2019-04-28T01:24:25.903Z,99.90
2019-04-28T01:26:55.881Z,99.90
2019-04-28T01:29:24.358Z,99.90
2019-04-28T01:32:10.416Z,99.90
2019-04-28T01:34:40.027Z,99.90
2019-04-28T01:37:09.719Z,99.90
2019-04-28T01:39:40.991Z,99.90
2019-04-28T01:42:08.335Z,99.90
2019-04-28T01:44:36.747Z,99.90
2019-04-28T01:47:05.149Z,99.90
2019-04-28T01:49:33.550Z,99.90
2019-04-28T01:52:01.952Z,99.90
2019-04-28T01:54:30.486Z,99.90
2019-04-28T01:57:01.138Z,99.90
2019-04-28T01:59:30.257Z,99.90
2019-04-28T02:02:00.133Z,99.90
2019-04-28T02:04:30.079Z,99.90
2019-04-28T02:06:59.818Z,99.90
2019-04-28T02:09:29.700Z,99.90
2019-04-28T02:11:58.221Z,99.90
2019-04-28T02:14:26.597Z,99.90
2019-04-28T02:16:55.004Z,99.90
2019-04-28T02:19:23.407Z,99.90
2019-04-28T02:21:53.451Z,99.90
2019-04-28T02:24:28.290Z,99.90
2019-04-28T02:26:56.951Z,99.90
2019-04-28T02:29:25.355Z,99.90
2019-04-28T02:31:53.766Z,99.90
2019-04-28T02:34:22.186Z,99.90
2019-04-28T02:36:53.993Z,99.90
2019-04-28T02:39:21.392Z,99.90
2019-04-28T02:41:51.180Z,99.90
2019-04-28T02:44:23.116Z,99.90
2019-04-28T02:46:50.842Z,99.90
2019-04-28T02:49:30.694Z,99.90
2019-04-28T02:52:03.005Z,99.90
2019-04-28T02:54:30.931Z,99.90
2019-04-28T02:57:01.277Z,99.90
2019-04-28T02:59:30.483Z,99.90
2019-04-28T03:02:00.657Z,99.90
2019-04-28T03:04:30.768Z,99.90
2019-04-28T03:07:01.381Z,99.90
2019-04-28T03:09:30.594Z,99.90
2019-04-28T03:12:01.472Z,99.90
2019-04-28T03:14:30.483Z,99.90
2019-04-28T03:17:00.907Z,99.90
2019-04-28T03:19:31.056Z,99.90
2019-04-28T03:22:01.352Z,99.90
2019-04-28T03:24:31.581Z,99.90
2019-04-28T03:27:04.364Z,99.90
2019-04-28T03:29:37.098Z,99.90
2019-04-28T03:32:30.462Z,99.90
2019-04-28T03:34:44.772Z,99.90
2019-04-28T03:37:13.252Z,99.90
2019-04-28T03:39:41.665Z,99.90
2019-04-28T03:42:11.716Z,99.90
2019-04-28T03:44:41.525Z,99.90
2019-04-28T03:47:10.777Z,99.90
2019-04-28T03:49:42.802Z,99.90
2019-04-28T03:52:10.670Z,99.90
2019-04-28T03:54:41.021Z,99.90
2019-04-28T03:57:11.512Z,99.90
2019-04-28T03:59:41.288Z,99.90
2019-04-28T04:02:11.232Z,99.90
2019-04-28T04:04:41.366Z,99.90
2019-04-28T04:07:11.108Z,99.90
2019-04-28T04:09:44.032Z,99.90
2019-04-28T04:12:21.181Z,99.90
2019-04-28T04:14:51.396Z,99.90
2019-04-28T04:17:21.447Z,99.90
2019-04-28T04:19:50.424Z,99.90
2019-04-28T04:22:21.215Z,99.90
2019-04-28T04:24:50.256Z,99.90
2019-04-28T04:27:20.947Z,99.90
2019-04-28T04:29:50.949Z,99.90
2019-04-28T04:32:26.240Z,99.90
2019-04-28T04:34:50.583Z,99.90
2019-04-28T04:37:20.536Z,99.90
2019-04-28T04:39:51.301Z,99.90
2019-04-28T04:42:20.434Z,99.90
2019-04-28T04:44:50.170Z,99.90
2019-04-28T04:47:21.042Z,99.90
2019-04-28T04:49:50.513Z,99.90
2019-04-28T04:52:20.295Z,99.90
2019-04-28T04:54:51.053Z,99.90
2019-04-28T04:57:20.712Z,99.90
2019-04-28T04:59:50.016Z,99.90
2019-04-28T05:02:29.310Z,99.90
2019-04-28T05:04:54.811Z,99.90
2019-04-28T05:07:23.227Z,99.90
2019-04-28T05:09:51.614Z,99.90
2019-04-28T05:12:20.024Z,99.90
2019-04-28T05:14:49.443Z,99.90
2019-04-28T05:17:17.912Z,99.90
2019-04-28T05:19:46.311Z,99.90
2019-04-28T05:22:15.604Z,99.90
2019-04-28T05:24:46.223Z,99.90
2019-04-28T05:27:17.452Z,99.90
2019-04-28T05:29:45.902Z,99.90
2019-04-28T05:32:14.300Z,99.90
2019-04-28T05:34:46.755Z,99.90
2019-04-28T05:37:12.824Z,99.90
2019-04-28T05:39:41.240Z,99.90
2019-04-28T05:42:11.272Z,99.90
2019-04-28T05:44:40.819Z,99.90
2019-04-28T05:47:09.961Z,99.90
2019-04-28T05:49:43.138Z,99.90
2019-04-28T05:52:29.908Z,99.90
2019-04-28T05:55:03.016Z,99.90
2019-04-28T05:57:33.054Z,99.90
2019-04-28T06:00:19.743Z,99.90
2019-04-28T06:03:00.573Z,99.90
2019-04-28T06:05:30.122Z,99.90
2019-04-28T06:08:00.337Z,99.90
2019-04-28T06:10:29.874Z,99.90
2019-04-28T06:12:59.718Z,99.90
2019-04-28T06:15:29.509Z,99.90
2019-04-28T06:17:59.997Z,99.90
2019-04-28T06:20:30.207Z,99.90
2019-04-28T06:22:58.255Z,99.90
2019-04-28T06:25:26.653Z,99.90
2019-04-28T06:27:55.068Z,99.90
2019-04-28T06:30:23.536Z,99.90
2019-04-28T06:32:51.952Z,99.90
2019-04-28T06:35:20.732Z,99.90
2019-04-28T06:37:49.123Z,99.90
2019-04-28T06:40:17.531Z,99.90
2019-04-28T06:42:45.931Z,99.90
2019-04-28T06:45:14.472Z,99.90
2019-04-28T06:47:42.873Z,99.90
2019-04-28T06:50:11.352Z,99.90
2019-04-28T06:52:39.756Z,99.90
2019-04-28T06:55:08.399Z,99.90
2019-04-28T06:57:36.797Z,99.90
2019-04-28T07:00:07.093Z,99.90
2019-04-28T07:02:35.878Z,99.90
2019-04-28T07:05:06.311Z,99.90
2019-04-28T07:07:34.718Z,99.90
2019-04-28T07:10:03.755Z,99.90
2019-04-28T07:12:32.163Z,99.90
2019-04-28T07:15:00.552Z,99.90
2019-04-28T07:17:28.968Z,99.90
2019-04-28T07:19:59.003Z,99.90
2019-04-28T07:22:29.051Z,99.90
2019-04-28T07:24:57.454Z,99.90
2019-04-28T07:27:25.866Z,99.90
2019-04-28T07:29:54.263Z,99.90
2019-04-28T07:32:22.667Z,99.90
2019-04-28T07:34:51.135Z,99.90
2019-04-28T07:37:19.539Z,99.90
2019-04-28T07:39:48.190Z,99.90
2019-04-28T07:42:16.600Z,99.90
2019-04-28T07:44:45.011Z,99.90
2019-04-28T07:47:13.481Z,99.90
2019-04-28T07:49:41.880Z,99.90
2019-04-28T07:52:17.638Z,99.90
2019-04-28T07:54:46.100Z,99.90
2019-04-28T07:57:14.491Z,99.90
2019-04-28T07:59:42.899Z,99.90
2019-04-28T08:02:11.303Z,99.90
2019-04-28T08:04:39.715Z,99.90
2019-04-28T08:07:08.107Z,99.90
2019-04-28T08:09:36.516Z,99.90
2019-04-28T08:12:05.460Z,99.90
2019-04-28T08:14:33.897Z,99.90
2019-04-28T08:17:02.300Z,99.90
2019-04-28T08:19:30.720Z,99.90
2019-04-28T08:21:59.128Z,99.90
2019-04-28T08:24:27.525Z,99.90
2019-04-28T08:26:55.938Z,99.90
2019-04-28T08:29:24.416Z,99.90
2019-04-28T08:31:54.458Z,99.90
2019-04-28T08:34:23.237Z,99.90
2019-04-28T08:36:51.643Z,99.90
2019-04-28T08:39:20.051Z,99.90
2019-04-28T08:41:49.327Z,99.90
2019-04-28T08:44:17.728Z,99.90
2019-04-28T08:46:46.145Z,99.90
2019-04-28T08:49:14.544Z,99.90
2019-04-28T08:51:42.943Z,99.90
2019-04-28T08:54:11.362Z,99.90
2019-04-28T08:56:39.763Z,99.90
2019-04-28T08:59:08.203Z,99.90
2019-04-28T09:01:36.600Z,99.90
2019-04-28T09:04:14.797Z,99.90
2019-04-28T09:06:35.131Z,99.90
2019-04-28T09:09:05.380Z,99.90
2019-04-28T09:11:33.787Z,99.90
2019-04-28T09:14:02.195Z,99.90
2019-04-28T09:16:30.602Z,99.90
2019-04-28T09:18:59.015Z,99.90
2019-04-28T09:21:27.419Z,99.90
2019-04-28T09:23:55.833Z,99.90
2019-04-28T09:26:24.233Z,99.90
2019-04-28T09:28:52.635Z,99.90
2019-04-28T09:31:21.058Z,99.90
2019-04-28T09:33:49.461Z,99.90
2019-04-28T09:36:17.877Z,99.90
2019-04-28T09:38:46.359Z,99.90
2019-04-28T09:41:14.763Z,99.90
2019-04-28T09:43:53.602Z,99.90
2019-04-28T09:46:23.652Z,99.90
2019-04-28T09:48:52.064Z,99.90
2019-04-28T09:51:20.552Z,99.90
2019-04-28T09:53:48.956Z,99.90
2019-04-28T09:56:17.725Z,99.90
2019-04-28T09:58:46.308Z,99.90
2019-04-28T10:01:14.881Z,99.90
2019-04-28T10:03:43.395Z,99.90
2019-04-28T10:06:11.801Z,99.90
2019-04-28T10:08:40.279Z,99.90
2019-04-28T10:11:08.691Z,99.90
2019-04-28T10:13:37.111Z,99.90
2019-04-28T10:16:05.667Z,99.90
2019-04-28T10:18:34.090Z,99.90
2019-04-28T10:21:02.503Z,99.90
2019-04-28T10:23:30.907Z,99.90
2019-04-28T10:25:59.324Z,99.90
2019-04-28T10:28:27.723Z,99.90
2019-04-28T10:30:56.143Z,99.90
2019-04-28T10:33:24.563Z,99.90
2019-04-28T10:35:52.967Z,99.90
2019-04-28T10:38:21.383Z,99.90
2019-04-28T10:41:06.702Z,99.90
2019-04-28T10:43:35.171Z,99.90
2019-04-28T10:46:03.643Z,99.90
2019-04-28T10:48:32.058Z,99.90
2019-04-28T10:51:01.325Z,99.90
2019-04-28T10:53:29.929Z,99.90
2019-04-28T10:55:58.443Z,99.90
2019-04-28T10:58:27.002Z,99.90
2019-04-28T11:00:55.631Z,99.90
2019-04-28T11:03:24.119Z,99.90
2019-04-28T11:05:52.650Z,99.90
2019-04-28T11:08:31.869Z,99.90
2019-04-28T11:11:01.984Z,99.90
2019-04-28T11:13:30.604Z,99.90
2019-04-28T11:15:59.155Z,99.90
2019-04-28T11:18:27.922Z,99.90
2019-04-28T11:20:56.335Z,97.40
2019-04-28T11:23:24.937Z,99.10
2019-04-28T11:25:53.413Z,97.50
2019-04-28T11:28:21.811Z,98.90
2019-04-28T11:30:50.236Z,97.60
2019-04-28T11:33:26.315Z,99.90
2019-04-28T11:35:54.727Z,99.90
2019-04-28T11:38:23.200Z,99.90
2019-04-28T11:40:51.761Z,99.20
2019-04-28T11:43:20.155Z,98.00
2019-04-28T11:45:48.571Z,99.90
2019-04-28T11:48:16.983Z,99.90
2019-04-28T11:50:45.454Z,99.00
2019-04-28T11:53:13.877Z,99.90
2019-04-28T11:55:42.283Z,99.90
2019-04-28T11:58:10.883Z,99.80
2019-04-28T12:00:39.515Z,99.90
2019-04-28T12:03:08.063Z,99.90
2019-04-28T12:05:43.673Z,99.90
2019-04-28T12:08:12.156Z,99.90
2019-04-28T12:11:00.299Z,99.90
2019-04-28T12:13:33.326Z,99.90
2019-04-28T12:16:03.379Z,99.90
2019-04-28T12:18:39.228Z,99.90
2019-04-28T12:21:07.802Z,99.90
2019-04-28T12:23:36.203Z,99.90
2019-04-28T12:26:04.642Z,99.90
2019-04-28T12:28:33.039Z,99.90
2019-04-28T12:31:01.458Z,99.90
2019-04-28T12:33:29.918Z,99.90
2019-04-28T12:35:58.324Z,99.90
2019-04-28T12:38:26.743Z,99.90
2019-04-28T12:40:55.157Z,99.90
2019-04-28T12:43:23.566Z,99.90
2019-04-28T12:45:52.002Z,99.90
2019-04-28T12:48:20.414Z,99.90
2019-04-28T12:50:53.234Z,99.90
2019-04-28T12:53:22.723Z,99.90
2019-04-28T12:55:51.124Z,99.90
2019-04-28T12:58:19.556Z,99.90
2019-04-28T13:01:06.003Z,99.90
2019-04-28T13:03:38.708Z,99.60
2019-04-28T13:06:08.862Z,99.20
2019-04-28T13:08:37.276Z,99.80
2019-04-28T13:11:05.695Z,99.90
2019-04-28T13:13:34.186Z,99.90
2019-04-28T13:16:02.589Z,99.90
2019-04-28T13:18:31.020Z,99.90
2019-04-28T13:20:59.504Z,99.90
2019-04-28T13:23:27.992Z,99.90
2019-04-28T13:25:56.396Z,99.90
2019-04-28T13:28:24.835Z,99.90
2019-04-28T13:30:53.373Z,99.90
2019-04-28T13:33:21.780Z,99.90
2019-04-28T13:35:50.195Z,99.90
2019-04-28T13:38:18.625Z,99.90
2019-04-28T13:40:47.036Z,99.90
2019-04-28T13:43:15.464Z,99.90
2019-04-28T13:45:43.874Z,99.90
2019-04-28T13:48:12.313Z,99.90
2019-04-28T13:50:40.715Z,99.90
2019-04-28T13:53:09.655Z,99.90
2019-04-28T13:55:42.547Z,99.90
2019-04-28T13:58:11.050Z,99.90
2019-04-28T14:00:41.155Z,99.90
2019-04-28T14:03:26.014Z,99.90
2019-04-28T14:06:12.496Z,99.90
2019-04-28T14:08:40.994Z,99.90
2019-04-28T14:11:09.457Z,97.80
2019-04-28T14:13:37.991Z,99.00
2019-04-28T14:16:06.628Z,99.90
2019-04-28T14:18:35.091Z,98.90
2019-04-28T14:21:03.522Z,97.40
2019-04-28T14:23:31.937Z,97.80
2019-04-28T14:26:00.397Z,98.20
2019-04-28T14:28:28.803Z,98.90
2019-04-28T14:30:57.230Z,97.40
2019-04-28T14:33:25.789Z,98.40
2019-04-28T14:35:54.253Z,98.30
2019-04-28T14:38:22.665Z,99.40
2019-04-28T14:40:51.131Z,99.20
2019-04-28T14:43:19.541Z,97.90
2019-04-28T14:45:47.968Z,99.80
2019-04-28T14:48:16.355Z,99.60
2019-04-28T14:50:44.764Z,99.80
2019-04-28T14:53:13.207Z,99.30
2019-04-28T14:55:41.687Z,96.80
2019-04-28T14:58:10.115Z,97.00
2019-04-28T15:00:48.871Z,97.70
2019-04-28T15:03:18.725Z,94.10
2019-04-28T15:05:54.701Z,94.30
2019-04-28T15:08:30.997Z,95.80
2019-04-28T15:11:12.731Z,94.80
2019-04-28T15:13:41.136Z,96.70
2019-04-28T15:16:09.582Z,93.30
2019-04-28T15:18:38.036Z,93.40
2019-04-28T15:21:06.448Z,95.30
2019-04-28T15:23:34.877Z,96.40
2019-04-28T15:26:03.581Z,96.60
2019-04-28T15:28:32.000Z,97.50
2019-04-28T15:31:00.408Z,98.00
2019-04-28T15:33:28.828Z,99.00
2019-04-28T15:35:57.301Z,99.90
2019-04-28T15:38:25.776Z,99.90
2019-04-28T15:40:54.199Z,99.90
2019-04-28T15:43:22.739Z,99.90
2019-04-28T15:45:51.151Z,99.90
2019-04-28T15:48:19.552Z,99.90
2019-04-28T15:50:48.006Z,99.90
2019-04-28T15:53:16.474Z,99.90
2019-04-28T15:55:55.615Z,99.90
2019-04-28T15:58:31.215Z,99.90
2019-04-28T16:01:00.032Z,99.90
2019-04-28T16:03:28.605Z,99.90
2019-04-28T16:05:59.745Z,99.90
2019-04-28T16:08:27.205Z,99.90
2019-04-28T16:10:55.640Z,99.90
2019-04-28T16:13:24.040Z,99.90
2019-04-28T16:15:52.707Z,99.90
2019-04-28T16:18:21.159Z,99.90
2019-04-28T16:20:49.785Z,99.90
2019-04-28T16:23:18.208Z,99.90
2019-04-28T16:25:46.678Z,99.90
2019-04-28T16:28:15.112Z,99.90
2019-04-28T16:30:43.652Z,99.90
2019-04-28T16:33:12.068Z,99.90
2019-04-28T16:35:40.540Z,99.90
2019-04-28T16:38:09.004Z,99.90
2019-04-28T16:40:37.955Z,99.90
2019-04-28T16:43:09.639Z,99.90
2019-04-28T16:45:38.051Z,99.90
2019-04-28T16:48:06.449Z,99.90
2019-04-28T16:50:34.873Z,99.90
2019-04-28T16:53:03.281Z,99.90
2019-04-28T16:55:33.319Z,99.90
2019-04-28T16:58:19.472Z,99.90
2019-04-28T17:00:58.635Z,99.90
2019-04-28T17:03:28.801Z,99.90
2019-04-28T17:05:57.262Z,99.90
2019-04-28T17:08:25.649Z,99.90
2019-04-28T17:10:54.095Z,99.90
2019-04-28T17:13:22.503Z,99.90
2019-04-28T17:15:50.909Z,99.90
2019-04-28T17:18:19.309Z,99.90
2019-04-28T17:20:47.713Z,99.90
2019-04-28T17:23:16.255Z,99.90
2019-04-28T17:25:44.691Z,99.90
2019-04-28T17:28:13.380Z,99.90
2019-04-28T17:30:41.775Z,99.90
2019-04-28T17:33:10.187Z,99.90
2019-04-28T17:35:38.680Z,99.90
2019-04-28T17:38:07.277Z,99.90
2019-04-28T17:40:36.407Z,99.90
2019-04-28T17:43:05.058Z,99.90
2019-04-28T17:45:33.544Z,99.90
2019-04-28T17:48:03.620Z,99.90
2019-04-28T17:50:32.110Z,99.90
2019-04-28T17:53:00.510Z,99.90
2019-04-28T17:55:28.904Z,99.90
2019-04-28T17:57:57.320Z,99.90
2019-04-28T18:00:30.039Z,99.90
2019-04-28T18:03:15.887Z,99.90
2019-04-28T18:05:45.948Z,99.90
2019-04-28T18:08:21.249Z,99.90
2019-04-28T18:10:44.622Z,99.90
2019-04-28T18:13:13.356Z,99.90
2019-04-28T18:15:58.235Z,99.90
2019-04-28T18:18:45.876Z,99.90
2019-04-28T18:21:14.283Z,99.90
2019-04-28T18:23:42.679Z,99.90
2019-04-28T18:26:11.092Z,99.90
2019-04-28T18:28:39.487Z,99.90
2019-04-28T18:31:15.551Z,99.90
2019-04-28T18:34:01.491Z,99.90
2019-04-28T18:36:32.186Z,99.90
2019-04-28T18:39:18.368Z,99.90
2019-04-28T18:41:54.371Z,99.90
2019-04-28T18:44:22.769Z,99.90
2019-04-28T18:46:51.177Z,99.90
2019-04-28T18:49:19.572Z,99.90
2019-04-28T18:51:47.978Z,99.90
2019-04-28T18:54:16.371Z,99.90
2019-04-28T18:56:44.779Z,99.90
2019-04-28T18:59:13.196Z,99.90
2019-04-28T19:01:45.939Z,99.90
2019-04-28T19:04:14.350Z,99.90
2019-04-28T19:06:42.797Z,99.90
2019-04-28T19:09:18.412Z,99.90
2019-04-28T19:11:57.737Z,99.90
2019-04-28T19:14:28.009Z,99.90
2019-04-28T19:17:14.347Z,99.90
2019-04-28T19:19:43.127Z,99.90
2019-04-28T19:22:11.655Z,99.90
2019-04-28T19:24:40.375Z,99.90
2019-04-28T19:27:08.787Z,99.90
2019-04-28T19:29:37.272Z,99.90
2019-04-28T19:32:05.800Z,99.90
2019-04-28T19:34:34.291Z,99.90
2019-04-28T19:37:02.768Z,99.90
2019-04-28T19:39:31.164Z,99.90
2019-04-28T19:41:59.572Z,99.90
2019-04-28T19:44:28.180Z,99.90
2019-04-28T19:46:56.648Z,99.90
2019-04-28T19:49:25.044Z,99.90
2019-04-28T19:51:53.549Z,99.90
2019-04-28T19:54:23.579Z,99.90
2019-04-28T19:56:56.329Z,99.90
2019-04-28T19:59:35.065Z,99.90
2019-04-28T20:02:03.480Z,99.90
2019-04-28T20:04:31.879Z,99.90
2019-04-28T20:07:00.293Z,99.90
2019-04-28T20:09:28.759Z,99.90
2019-04-28T20:11:57.155Z,99.90
2019-04-28T20:14:25.576Z,99.90
2019-04-28T20:16:53.981Z,99.90
2019-04-28T20:19:22.470Z,99.90
2019-04-28T20:21:50.880Z,99.90
2019-04-28T20:24:19.592Z,99.90
2019-04-28T20:26:48.071Z,99.90
2019-04-28T20:29:16.548Z,99.90
2019-04-28T20:31:44.945Z,99.90
2019-04-28T20:34:13.371Z,99.90
2019-04-28T20:36:48.856Z,99.90
2019-04-28T20:39:18.899Z,99.90
2019-04-28T20:41:47.376Z,99.90
2019-04-28T20:44:15.795Z,99.90
2019-04-28T20:46:44.280Z,99.90
2019-04-28T20:49:12.688Z,99.90
2019-04-28T20:51:41.087Z,99.90
2019-04-28T20:54:09.508Z,99.90
2019-04-28T20:56:37.902Z,99.90
2019-04-28T20:59:06.307Z,99.90
2019-04-28T21:01:34.723Z,99.90
2019-04-28T21:04:03.121Z,99.90
2019-04-28T21:06:31.531Z,99.90
2019-04-28T21:08:59.939Z,99.90
2019-04-28T21:11:28.344Z,99.90
2019-04-28T21:13:56.744Z,99.90
2019-04-28T21:16:25.140Z,99.90
2019-04-28T21:18:53.554Z,99.90
2019-04-28T21:21:21.955Z,99.90
2019-04-28T21:23:50.409Z,99.90
2019-04-28T21:26:18.815Z,99.90
2019-04-28T21:28:47.223Z,99.90
2019-04-28T21:31:15.631Z,99.90
2019-04-28T21:33:44.061Z,99.90
2019-04-28T21:36:12.464Z,99.90
2019-04-28T21:38:40.871Z,99.90
2019-04-28T21:41:09.272Z,99.90
2019-04-28T21:43:39.306Z,99.90
2019-04-28T21:46:15.364Z,99.90
2019-04-28T21:48:45.496Z,99.90
2019-04-28T21:51:14.070Z,99.90
2019-04-28T21:53:42.477Z,99.90
2019-04-28T21:56:10.881Z,99.90
2019-04-28T21:58:39.281Z,99.90
2019-04-28T22:01:09.296Z,99.90
2019-04-28T22:03:37.691Z,99.90
2019-04-28T22:06:06.169Z,99.90
2019-04-28T22:08:34.576Z,99.90
2019-04-28T22:11:02.984Z,99.90
2019-04-28T22:13:31.472Z,99.90
2019-04-28T22:15:59.871Z,99.90
2019-04-28T22:18:28.276Z,99.90
2019-04-28T22:20:56.670Z,99.90
2019-04-28T22:23:38.323Z,99.90
2019-04-28T22:26:08.365Z,99.90
2019-04-28T22:28:36.785Z,99.90
2019-04-28T22:31:05.260Z,99.90
2019-04-28T22:33:33.675Z,99.90
2019-04-28T22:36:02.071Z,99.90
2019-04-28T22:38:30.487Z,99.90
2019-04-28T22:40:58.892Z,99.90
2019-04-28T22:43:27.307Z,99.90
2019-04-28T22:45:55.704Z,99.90
2019-04-28T22:48:25.787Z,99.90
2019-04-28T22:50:55.277Z,99.90
2019-04-28T22:53:25.397Z,99.90
2019-04-28T22:55:55.476Z,99.90
2019-04-28T22:58:31.587Z,99.90
2019-04-28T23:01:07.847Z,99.90
2019-04-28T23:03:37.893Z,99.90
2019-04-28T23:06:06.366Z,99.90
2019-04-28T23:08:34.769Z,99.90
2019-04-28T23:11:03.323Z,99.90
2019-04-28T23:13:31.731Z,99.90
2019-04-28T23:16:00.146Z,99.90
2019-04-28T23:18:28.952Z,99.90
2019-04-28T23:21:07.707Z,99.90
2019-04-28T23:23:36.099Z,99.90
2019-04-28T23:26:04.706Z,99.90
2019-04-28T23:28:33.232Z,99.90
2019-04-28T23:31:01.655Z,99.90
2019-04-28T23:33:30.071Z,99.90
2019-04-28T23:35:58.463Z,99.90
2019-04-28T23:38:26.872Z,99.90
2019-04-28T23:41:14.877Z,99.90
2019-04-28T23:43:43.283Z,99.90
2019-04-28T23:46:11.673Z,99.90
2019-04-28T23:48:40.083Z,99.90
2019-04-28T23:51:21.886Z,99.90
2019-04-28T23:53:57.727Z,99.90
2019-04-28T23:56:26.136Z,99.90
2019-04-28T23:58:54.608Z,99.90
